sensor_id;sensor_type;location;lat;lon;timestamp;P1;durP1;ratioP1;P2;durP2;ratioP2
56541;SDS011;42438;53.174;6.730;2023-07-13T00:00:15;8.10;;;2.42;;
56541;SDS011;42438;53.174;6.730;2023-07-13T00:02:46;7.07;;;2.78;;
56541;SDS011;42438;53.174;6.730;2023-07-13T00:05:17;6.97;;;2.50;;
56541;SDS011;42438;53.174;6.730;2023-07-13T00:07:48;5.50;;;2.28;;
56541;SDS011;42438;53.174;6.730;2023-07-13T00:10:20;7.05;;;2.33;;
56541;SDS011;42438;53.174;6.730;2023-07-13T00:12:51;6.72;;;2.70;;
56541;SDS011;42438;53.174;6.730;2023-07-13T00:15:25;6.88;;;2.30;;
56541;SDS011;42438;53.174;6.730;2023-07-13T00:17:56;6.05;;;2.53;;
56541;SDS011;42438;53.174;6.730;2023-07-13T00:20:27;6.82;;;2.58;;
56541;SDS011;42438;53.174;6.730;2023-07-13T00:22:58;7.75;;;2.30;;
56541;SDS011;42438;53.174;6.730;2023-07-13T00:25:29;6.30;;;2.25;;
56541;SDS011;42438;53.174;6.730;2023-07-13T00:28:00;9.13;;;2.88;;
56541;SDS011;42438;53.174;6.730;2023-07-13T00:30:32;7.85;;;2.50;;
56541;SDS011;42438;53.174;6.730;2023-07-13T00:33:02;7.88;;;2.60;;
56541;SDS011;42438;53.174;6.730;2023-07-13T00:35:33;7.85;;;2.67;;
56541;SDS011;42438;53.174;6.730;2023-07-13T00:38:04;8.25;;;3.28;;
56541;SDS011;42438;53.174;6.730;2023-07-13T00:40:35;9.48;;;2.92;;
56541;SDS011;42438;53.174;6.730;2023-07-13T00:43:25;10.55;;;2.92;;
56541;SDS011;42438;53.174;6.730;2023-07-13T00:48:49;7.43;;;2.58;;
56541;SDS011;42438;53.174;6.730;2023-07-13T00:51:26;6.83;;;2.47;;
56541;SDS011;42438;53.174;6.730;2023-07-13T00:54:02;10.57;;;2.50;;
56541;SDS011;42438;53.174;6.730;2023-07-13T00:56:34;6.47;;;2.72;;
56541;SDS011;42438;53.174;6.730;2023-07-13T00:59:06;6.75;;;2.75;;
56541;SDS011;42438;53.174;6.730;2023-07-13T01:01:40;10.82;;;4.15;;
56541;SDS011;42438;53.174;6.730;2023-07-13T01:04:11;10.90;;;2.90;;
56541;SDS011;42438;53.174;6.730;2023-07-13T01:06:44;10.88;;;2.83;;
56541;SDS011;42438;53.174;6.730;2023-07-13T01:09:17;11.52;;;2.47;;
56541;SDS011;42438;53.174;6.730;2023-07-13T01:11:48;10.90;;;3.13;;
56541;SDS011;42438;53.174;6.730;2023-07-13T01:14:19;10.05;;;3.45;;
56541;SDS011;42438;53.174;6.730;2023-07-13T01:16:49;10.32;;;2.97;;
56541;SDS011;42438;53.174;6.730;2023-07-13T01:19:32;7.45;;;2.80;;
56541;SDS011;42438;53.174;6.730;2023-07-13T01:22:11;7.18;;;3.38;;
56541;SDS011;42438;53.174;6.730;2023-07-13T01:24:46;8.80;;;2.83;;
56541;SDS011;42438;53.174;6.730;2023-07-13T01:27:20;7.57;;;2.85;;
56541;SDS011;42438;53.174;6.730;2023-07-13T01:29:55;10.18;;;3.17;;
56541;SDS011;42438;53.174;6.730;2023-07-13T01:32:32;12.23;;;3.28;;
56541;SDS011;42438;53.174;6.730;2023-07-13T01:35:04;9.60;;;2.95;;
56541;SDS011;42438;53.174;6.730;2023-07-13T01:37:35;9.27;;;3.28;;
56541;SDS011;42438;53.174;6.730;2023-07-13T01:40:06;9.70;;;2.95;;
56541;SDS011;42438;53.174;6.730;2023-07-13T01:42:38;11.55;;;3.35;;
56541;SDS011;42438;53.174;6.730;2023-07-13T01:45:10;10.40;;;3.00;;
56541;SDS011;42438;53.174;6.730;2023-07-13T01:47:40;14.25;;;3.15;;
56541;SDS011;42438;53.174;6.730;2023-07-13T01:50:11;13.95;;;4.20;;
56541;SDS011;42438;53.174;6.730;2023-07-13T01:52:42;8.20;;;3.28;;
56541;SDS011;42438;53.174;6.730;2023-07-13T01:55:13;10.82;;;3.10;;
56541;SDS011;42438;53.174;6.730;2023-07-13T01:57:44;10.80;;;3.53;;
56541;SDS011;42438;53.174;6.730;2023-07-13T02:00:14;9.48;;;3.13;;
56541;SDS011;42438;53.174;6.730;2023-07-13T02:02:45;9.40;;;3.03;;
56541;SDS011;42438;53.174;6.730;2023-07-13T02:05:16;10.88;;;3.30;;
56541;SDS011;42438;53.174;6.730;2023-07-13T02:07:47;10.43;;;3.00;;
56541;SDS011;42438;53.174;6.730;2023-07-13T02:10:18;9.50;;;3.03;;
56541;SDS011;42438;53.174;6.730;2023-07-13T02:12:49;8.27;;;3.80;;
56541;SDS011;42438;53.174;6.730;2023-07-13T02:15:20;9.25;;;2.63;;
56541;SDS011;42438;53.174;6.730;2023-07-13T02:17:51;12.48;;;3.30;;
56541;SDS011;42438;53.174;6.730;2023-07-13T02:20:22;15.57;;;3.35;;
56541;SDS011;42438;53.174;6.730;2023-07-13T02:22:52;9.38;;;3.30;;
56541;SDS011;42438;53.174;6.730;2023-07-13T02:25:23;12.50;;;4.30;;
56541;SDS011;42438;53.174;6.730;2023-07-13T02:27:55;11.27;;;3.20;;
56541;SDS011;42438;53.174;6.730;2023-07-13T02:30:26;12.38;;;3.78;;
56541;SDS011;42438;53.174;6.730;2023-07-13T02:32:59;16.63;;;3.38;;
56541;SDS011;42438;53.174;6.730;2023-07-13T02:35:30;6.85;;;2.95;;
56541;SDS011;42438;53.174;6.730;2023-07-13T02:38:01;8.73;;;3.50;;
56541;SDS011;42438;53.174;6.730;2023-07-13T02:40:32;12.15;;;3.47;;
56541;SDS011;42438;53.174;6.730;2023-07-13T02:43:05;14.20;;;3.80;;
56541;SDS011;42438;53.174;6.730;2023-07-13T02:45:36;9.45;;;3.33;;
56541;SDS011;42438;53.174;6.730;2023-07-13T02:48:07;9.88;;;3.28;;
56541;SDS011;42438;53.174;6.730;2023-07-13T02:50:37;8.65;;;3.58;;
56541;SDS011;42438;53.174;6.730;2023-07-13T02:53:08;9.88;;;3.05;;
56541;SDS011;42438;53.174;6.730;2023-07-13T02:55:39;7.53;;;3.38;;
56541;SDS011;42438;53.174;6.730;2023-07-13T02:58:10;12.18;;;3.05;;
56541;SDS011;42438;53.174;6.730;2023-07-13T03:00:41;12.52;;;4.07;;
56541;SDS011;42438;53.174;6.730;2023-07-13T03:03:16;7.80;;;3.28;;
56541;SDS011;42438;53.174;6.730;2023-07-13T03:05:47;10.27;;;3.30;;
56541;SDS011;42438;53.174;6.730;2023-07-13T03:08:20;10.57;;;3.47;;
56541;SDS011;42438;53.174;6.730;2023-07-13T03:10:58;9.45;;;3.08;;
56541;SDS011;42438;53.174;6.730;2023-07-13T03:13:41;10.15;;;3.10;;
56541;SDS011;42438;53.174;6.730;2023-07-13T03:16:12;8.90;;;2.80;;
56541;SDS011;42438;53.174;6.730;2023-07-13T03:18:46;11.10;;;2.67;;
56541;SDS011;42438;53.174;6.730;2023-07-13T03:21:17;8.95;;;2.60;;
56541;SDS011;42438;53.174;6.730;2023-07-13T03:23:48;10.90;;;3.03;;
56541;SDS011;42438;53.174;6.730;2023-07-13T03:26:19;10.13;;;3.35;;
56541;SDS011;42438;53.174;6.730;2023-07-13T03:28:50;9.93;;;2.60;;
56541;SDS011;42438;53.174;6.730;2023-07-13T03:31:22;10.10;;;3.45;;
56541;SDS011;42438;53.174;6.730;2023-07-13T03:33:56;10.55;;;2.75;;
56541;SDS011;42438;53.174;6.730;2023-07-13T03:36:28;10.45;;;3.25;;
56541;SDS011;42438;53.174;6.730;2023-07-13T03:39:00;10.43;;;3.72;;
56541;SDS011;42438;53.174;6.730;2023-07-13T03:41:33;9.23;;;3.70;;
56541;SDS011;42438;53.174;6.730;2023-07-13T03:44:04;11.23;;;2.88;;
56541;SDS011;42438;53.174;6.730;2023-07-13T03:46:34;10.38;;;3.00;;
56541;SDS011;42438;53.174;6.730;2023-07-13T03:49:05;8.05;;;2.78;;
56541;SDS011;42438;53.174;6.730;2023-07-13T03:51:36;12.75;;;3.33;;
56541;SDS011;42438;53.174;6.730;2023-07-13T03:54:07;7.88;;;3.42;;
56541;SDS011;42438;53.174;6.730;2023-07-13T03:56:37;13.98;;;3.25;;
56541;SDS011;42438;53.174;6.730;2023-07-13T03:59:08;12.27;;;3.35;;
56541;SDS011;42438;53.174;6.730;2023-07-13T04:01:39;10.90;;;3.42;;
56541;SDS011;42438;53.174;6.730;2023-07-13T04:04:10;12.15;;;3.47;;
56541;SDS011;42438;53.174;6.730;2023-07-13T04:06:41;11.05;;;3.88;;
56541;SDS011;42438;53.174;6.730;2023-07-13T04:09:11;11.70;;;3.80;;
56541;SDS011;42438;53.174;6.730;2023-07-13T04:11:42;10.88;;;3.75;;
56541;SDS011;42438;53.174;6.730;2023-07-13T04:14:13;14.45;;;4.10;;
56541;SDS011;42438;53.174;6.730;2023-07-13T04:16:43;8.60;;;3.20;;
56541;SDS011;42438;53.174;6.730;2023-07-13T04:19:15;12.57;;;3.22;;
56541;SDS011;42438;53.174;6.730;2023-07-13T04:21:46;11.65;;;3.28;;
56541;SDS011;42438;53.174;6.730;2023-07-13T04:24:17;10.80;;;3.42;;
56541;SDS011;42438;53.174;6.730;2023-07-13T04:26:47;11.20;;;3.08;;
56541;SDS011;42438;53.174;6.730;2023-07-13T04:29:18;8.82;;;3.65;;
56541;SDS011;42438;53.174;6.730;2023-07-13T04:31:49;10.50;;;3.28;;
56541;SDS011;42438;53.174;6.730;2023-07-13T04:34:20;12.43;;;3.60;;
56541;SDS011;42438;53.174;6.730;2023-07-13T04:36:50;13.10;;;3.33;;
56541;SDS011;42438;53.174;6.730;2023-07-13T04:39:22;10.52;;;3.22;;
56541;SDS011;42438;53.174;6.730;2023-07-13T04:41:53;15.00;;;3.38;;
56541;SDS011;42438;53.174;6.730;2023-07-13T04:44:25;15.40;;;3.95;;
56541;SDS011;42438;53.174;6.730;2023-07-13T04:46:56;10.95;;;3.30;;
56541;SDS011;42438;53.174;6.730;2023-07-13T04:49:27;13.27;;;3.65;;
56541;SDS011;42438;53.174;6.730;2023-07-13T04:51:57;11.20;;;3.38;;
56541;SDS011;42438;53.174;6.730;2023-07-13T04:54:28;11.98;;;3.65;;
56541;SDS011;42438;53.174;6.730;2023-07-13T04:56:59;13.75;;;3.83;;
56541;SDS011;42438;53.174;6.730;2023-07-13T04:59:30;9.35;;;3.05;;
56541;SDS011;42438;53.174;6.730;2023-07-13T05:02:00;14.05;;;3.72;;
56541;SDS011;42438;53.174;6.730;2023-07-13T05:04:33;12.73;;;3.58;;
56541;SDS011;42438;53.174;6.730;2023-07-13T05:07:04;13.90;;;3.30;;
56541;SDS011;42438;53.174;6.730;2023-07-13T05:09:36;11.20;;;3.90;;
56541;SDS011;42438;53.174;6.730;2023-07-13T05:12:08;9.75;;;3.15;;
56541;SDS011;42438;53.174;6.730;2023-07-13T05:14:39;24.65;;;4.85;;
56541;SDS011;42438;53.174;6.730;2023-07-13T05:17:10;10.00;;;3.53;;
56541;SDS011;42438;53.174;6.730;2023-07-13T05:19:40;15.45;;;3.75;;
56541;SDS011;42438;53.174;6.730;2023-07-13T05:22:11;10.93;;;3.42;;
56541;SDS011;42438;53.174;6.730;2023-07-13T05:24:42;10.23;;;3.47;;
56541;SDS011;42438;53.174;6.730;2023-07-13T05:27:12;12.02;;;3.53;;
56541;SDS011;42438;53.174;6.730;2023-07-13T05:29:43;10.95;;;3.25;;
56541;SDS011;42438;53.174;6.730;2023-07-13T05:32:14;10.45;;;3.72;;
56541;SDS011;42438;53.174;6.730;2023-07-13T05:34:45;11.80;;;3.35;;
56541;SDS011;42438;53.174;6.730;2023-07-13T05:37:16;9.45;;;3.00;;
56541;SDS011;42438;53.174;6.730;2023-07-13T05:39:46;9.52;;;2.97;;
56541;SDS011;42438;53.174;6.730;2023-07-13T05:42:17;10.57;;;3.00;;
56541;SDS011;42438;53.174;6.730;2023-07-13T05:44:48;10.27;;;3.13;;
56541;SDS011;42438;53.174;6.730;2023-07-13T05:47:19;11.40;;;3.80;;
56541;SDS011;42438;53.174;6.730;2023-07-13T05:49:49;9.80;;;3.47;;
56541;SDS011;42438;53.174;6.730;2023-07-13T05:52:20;11.77;;;3.92;;
56541;SDS011;42438;53.174;6.730;2023-07-13T05:54:51;9.02;;;3.00;;
56541;SDS011;42438;53.174;6.730;2023-07-13T05:57:22;6.93;;;2.60;;
56541;SDS011;42438;53.174;6.730;2023-07-13T05:59:52;9.75;;;2.83;;
56541;SDS011;42438;53.174;6.730;2023-07-13T06:02:23;8.45;;;2.53;;
56541;SDS011;42438;53.174;6.730;2023-07-13T06:04:54;8.88;;;2.72;;
56541;SDS011;42438;53.174;6.730;2023-07-13T06:07:24;7.72;;;3.00;;
56541;SDS011;42438;53.174;6.730;2023-07-13T06:09:55;11.35;;;2.40;;
56541;SDS011;42438;53.174;6.730;2023-07-13T06:12:26;8.18;;;2.78;;
56541;SDS011;42438;53.174;6.730;2023-07-13T06:14:57;14.05;;;2.83;;
56541;SDS011;42438;53.174;6.730;2023-07-13T06:17:28;6.28;;;2.40;;
56541;SDS011;42438;53.174;6.730;2023-07-13T06:19:59;7.13;;;2.40;;
56541;SDS011;42438;53.174;6.730;2023-07-13T06:22:29;8.05;;;2.63;;
56541;SDS011;42438;53.174;6.730;2023-07-13T06:25:00;7.13;;;2.70;;
56541;SDS011;42438;53.174;6.730;2023-07-13T06:27:31;7.32;;;2.95;;
56541;SDS011;42438;53.174;6.730;2023-07-13T06:30:02;11.18;;;2.58;;
56541;SDS011;42438;53.174;6.730;2023-07-13T06:32:33;7.10;;;2.42;;
56541;SDS011;42438;53.174;6.730;2023-07-13T06:35:04;9.50;;;2.65;;
56541;SDS011;42438;53.174;6.730;2023-07-13T06:37:35;11.25;;;2.72;;
56541;SDS011;42438;53.174;6.730;2023-07-13T06:40:06;5.57;;;2.00;;
56541;SDS011;42438;53.174;6.730;2023-07-13T06:42:37;6.28;;;2.40;;
56541;SDS011;42438;53.174;6.730;2023-07-13T06:45:08;7.88;;;2.78;;
56541;SDS011;42438;53.174;6.730;2023-07-13T06:47:39;5.10;;;2.80;;
56541;SDS011;42438;53.174;6.730;2023-07-13T06:50:10;9.85;;;2.40;;
56541;SDS011;42438;53.174;6.730;2023-07-13T06:52:41;10.25;;;2.50;;
56541;SDS011;42438;53.174;6.730;2023-07-13T06:55:12;10.32;;;2.95;;
56541;SDS011;42438;53.174;6.730;2023-07-13T06:57:42;10.90;;;2.88;;
56541;SDS011;42438;53.174;6.730;2023-07-13T07:00:13;8.48;;;2.50;;
56541;SDS011;42438;53.174;6.730;2023-07-13T07:02:44;9.52;;;2.50;;
56541;SDS011;42438;53.174;6.730;2023-07-13T07:05:15;6.82;;;2.30;;
56541;SDS011;42438;53.174;6.730;2023-07-13T07:07:46;6.90;;;2.40;;
56541;SDS011;42438;53.174;6.730;2023-07-13T07:10:17;6.03;;;2.28;;
56541;SDS011;42438;53.174;6.730;2023-07-13T07:12:48;7.57;;;2.30;;
56541;SDS011;42438;53.174;6.730;2023-07-13T07:15:19;6.35;;;2.40;;
56541;SDS011;42438;53.174;6.730;2023-07-13T07:17:50;6.70;;;2.33;;
56541;SDS011;42438;53.174;6.730;2023-07-13T07:20:21;6.13;;;2.17;;
56541;SDS011;42438;53.174;6.730;2023-07-13T07:22:52;5.78;;;2.55;;
56541;SDS011;42438;53.174;6.730;2023-07-13T07:25:22;6.07;;;2.33;;
56541;SDS011;42438;53.174;6.730;2023-07-13T07:27:53;5.82;;;2.10;;
56541;SDS011;42438;53.174;6.730;2023-07-13T07:30:24;9.45;;;2.50;;
56541;SDS011;42438;53.174;6.730;2023-07-13T07:32:55;6.10;;;2.42;;
56541;SDS011;42438;53.174;6.730;2023-07-13T07:35:25;5.90;;;2.20;;
56541;SDS011;42438;53.174;6.730;2023-07-13T07:37:56;6.47;;;2.55;;
56541;SDS011;42438;53.174;6.730;2023-07-13T07:40:27;5.00;;;2.38;;
56541;SDS011;42438;53.174;6.730;2023-07-13T07:42:57;6.60;;;2.03;;
56541;SDS011;42438;53.174;6.730;2023-07-13T07:45:28;6.70;;;2.25;;
56541;SDS011;42438;53.174;6.730;2023-07-13T07:47:59;9.27;;;2.80;;
56541;SDS011;42438;53.174;6.730;2023-07-13T07:50:30;5.50;;;2.28;;
56541;SDS011;42438;53.174;6.730;2023-07-13T07:53:01;6.38;;;2.60;;
56541;SDS011;42438;53.174;6.730;2023-07-13T07:55:33;5.40;;;2.40;;
56541;SDS011;42438;53.174;6.730;2023-07-13T07:58:07;8.75;;;2.83;;
56541;SDS011;42438;53.174;6.730;2023-07-13T08:00:38;7.32;;;2.42;;
56541;SDS011;42438;53.174;6.730;2023-07-13T08:03:10;12.43;;;2.67;;
56541;SDS011;42438;53.174;6.730;2023-07-13T08:05:41;8.27;;;2.50;;
56541;SDS011;42438;53.174;6.730;2023-07-13T08:08:11;6.88;;;2.47;;
56541;SDS011;42438;53.174;6.730;2023-07-13T08:10:42;9.98;;;2.40;;
56541;SDS011;42438;53.174;6.730;2023-07-13T08:13:13;6.45;;;2.78;;
56541;SDS011;42438;53.174;6.730;2023-07-13T08:15:44;3.60;;;1.70;;
56541;SDS011;42438;53.174;6.730;2023-07-13T08:18:15;5.60;;;2.30;;
56541;SDS011;42438;53.174;6.730;2023-07-13T08:20:46;6.53;;;2.20;;
56541;SDS011;42438;53.174;6.730;2023-07-13T08:23:17;5.53;;;2.35;;
56541;SDS011;42438;53.174;6.730;2023-07-13T08:25:52;4.20;;;2.17;;
56541;SDS011;42438;53.174;6.730;2023-07-13T08:28:23;3.75;;;1.70;;
56541;SDS011;42438;53.174;6.730;2023-07-13T08:30:54;3.65;;;1.70;;
56541;SDS011;42438;53.174;6.730;2023-07-13T08:33:25;4.43;;;1.67;;
56541;SDS011;42438;53.174;6.730;2023-07-13T08:35:55;5.15;;;1.90;;
56541;SDS011;42438;53.174;6.730;2023-07-13T08:38:27;5.68;;;2.03;;
56541;SDS011;42438;53.174;6.730;2023-07-13T08:40:58;5.28;;;1.95;;
56541;SDS011;42438;53.174;6.730;2023-07-13T08:43:30;5.55;;;2.15;;
56541;SDS011;42438;53.174;6.730;2023-07-13T08:46:16;4.38;;;2.10;;
56541;SDS011;42438;53.174;6.730;2023-07-13T08:49:18;6.72;;;2.03;;
56541;SDS011;42438;53.174;6.730;2023-07-13T08:51:53;5.68;;;2.03;;
56541;SDS011;42438;53.174;6.730;2023-07-13T08:54:36;4.72;;;1.85;;
56541;SDS011;42438;53.174;6.730;2023-07-13T08:57:15;4.25;;;1.75;;
56541;SDS011;42438;53.174;6.730;2023-07-13T08:59:51;3.15;;;1.70;;
56541;SDS011;42438;53.174;6.730;2023-07-13T09:02:40;3.95;;;1.70;;
56541;SDS011;42438;53.174;6.730;2023-07-13T09:17:04;6.55;;;2.00;;
56541;SDS011;42438;53.174;6.730;2023-07-13T09:19:40;4.88;;;2.20;;
56541;SDS011;42438;53.174;6.730;2023-07-13T09:22:13;4.65;;;2.20;;
56541;SDS011;42438;53.174;6.730;2023-07-13T09:24:52;4.38;;;1.88;;
56541;SDS011;42438;53.174;6.730;2023-07-13T09:27:33;5.88;;;2.30;;
56541;SDS011;42438;53.174;6.730;2023-07-13T09:33:00;4.90;;;2.10;;
56541;SDS011;42438;53.174;6.730;2023-07-13T09:35:31;4.07;;;2.10;;
56541;SDS011;42438;53.174;6.730;2023-07-13T09:38:16;4.50;;;2.15;;
56541;SDS011;42438;53.174;6.730;2023-07-13T09:40:52;4.05;;;2.42;;
56541;SDS011;42438;53.174;6.730;2023-07-13T09:43:31;5.18;;;2.55;;
56541;SDS011;42438;53.174;6.730;2023-07-13T09:46:01;3.95;;;2.20;;
56541;SDS011;42438;53.174;6.730;2023-07-13T09:48:35;6.53;;;2.53;;
56541;SDS011;42438;53.174;6.730;2023-07-13T09:51:07;5.88;;;2.65;;
56541;SDS011;42438;53.174;6.730;2023-07-13T09:53:44;5.40;;;2.75;;
56541;SDS011;42438;53.174;6.730;2023-07-13T09:56:21;7.88;;;2.65;;
56541;SDS011;42438;53.174;6.730;2023-07-13T09:58:56;5.68;;;2.60;;
56541;SDS011;42438;53.174;6.730;2023-07-13T10:01:35;7.25;;;2.70;;
56541;SDS011;42438;53.174;6.730;2023-07-13T10:04:13;6.00;;;2.75;;
56541;SDS011;42438;53.174;6.730;2023-07-13T10:06:46;5.30;;;2.80;;
56541;SDS011;42438;53.174;6.730;2023-07-13T10:09:17;5.03;;;2.55;;
56541;SDS011;42438;53.174;6.730;2023-07-13T10:11:49;5.53;;;2.60;;
56541;SDS011;42438;53.174;6.730;2023-07-13T10:14:21;4.05;;;2.80;;
56541;SDS011;42438;53.174;6.730;2023-07-13T10:16:59;5.63;;;2.25;;
56541;SDS011;42438;53.174;6.730;2023-07-13T10:19:32;5.90;;;2.30;;
56541;SDS011;42438;53.174;6.730;2023-07-13T10:22:18;6.90;;;2.30;;
56541;SDS011;42438;53.174;6.730;2023-07-13T10:24:57;4.97;;;2.70;;
56541;SDS011;42438;53.174;6.730;2023-07-13T10:27:31;5.22;;;2.40;;
56541;SDS011;42438;53.174;6.730;2023-07-13T10:30:23;6.90;;;2.40;;
56541;SDS011;42438;53.174;6.730;2023-07-13T10:33:01;5.75;;;2.10;;
56541;SDS011;42438;53.174;6.730;2023-07-13T10:35:35;5.25;;;2.53;;
56541;SDS011;42438;53.174;6.730;2023-07-13T10:38:10;5.90;;;2.30;;
56541;SDS011;42438;53.174;6.730;2023-07-13T10:43:38;5.53;;;2.83;;
56541;SDS011;42438;53.174;6.730;2023-07-13T10:46:15;5.35;;;2.83;;
56541;SDS011;42438;53.174;6.730;2023-07-13T10:48:49;5.07;;;2.67;;
56541;SDS011;42438;53.174;6.730;2023-07-13T10:51:24;7.22;;;2.70;;
56541;SDS011;42438;53.174;6.730;2023-07-13T10:56:53;7.57;;;2.85;;
56541;SDS011;42438;53.174;6.730;2023-07-13T11:00:30;5.72;;;2.80;;
56541;SDS011;42438;53.174;6.730;2023-07-13T11:02:34;5.57;;;2.95;;
56541;SDS011;42438;53.174;6.730;2023-07-13T11:05:25;5.20;;;2.75;;
56541;SDS011;42438;53.174;6.730;2023-07-13T11:11:03;6.28;;;2.50;;
56541;SDS011;42438;53.174;6.730;2023-07-13T11:22:00;3.40;;;1.93;;
56541;SDS011;42438;53.174;6.730;2023-07-13T11:35:37;4.75;;;1.50;;
56541;SDS011;42438;53.174;6.730;2023-07-13T11:38:50;3.50;;;1.42;;
56541;SDS011;42438;53.174;6.730;2023-07-13T11:41:22;3.83;;;1.50;;
56541;SDS011;42438;53.174;6.730;2023-07-13T11:44:05;4.10;;;1.38;;
56541;SDS011;42438;53.174;6.730;2023-07-13T11:46:51;4.03;;;1.63;;
56541;SDS011;42438;53.174;6.730;2023-07-13T11:49:25;3.88;;;1.50;;
56541;SDS011;42438;53.174;6.730;2023-07-13T11:51:57;3.13;;;1.80;;
56541;SDS011;42438;53.174;6.730;2023-07-13T11:54:33;3.97;;;1.60;;
56541;SDS011;42438;53.174;6.730;2023-07-13T11:57:26;10.45;;;2.00;;
56541;SDS011;42438;53.174;6.730;2023-07-13T12:00:03;5.38;;;1.52;;
56541;SDS011;42438;53.174;6.730;2023-07-13T12:02:42;4.32;;;1.83;;
56541;SDS011;42438;53.174;6.730;2023-07-13T12:05:15;3.58;;;1.55;;
56541;SDS011;42438;53.174;6.730;2023-07-13T12:10:20;3.13;;;1.50;;
56541;SDS011;42438;53.174;6.730;2023-07-13T12:12:57;5.65;;;1.50;;
56541;SDS011;42438;53.174;6.730;2023-07-13T12:18:13;2.90;;;1.52;;
56541;SDS011;42438;53.174;6.730;2023-07-13T12:20:51;3.85;;;1.55;;
56541;SDS011;42438;53.174;6.730;2023-07-13T12:23:30;2.13;;;1.33;;
56541;SDS011;42438;53.174;6.730;2023-07-13T12:26:04;5.63;;;1.67;;
56541;SDS011;42438;53.174;6.730;2023-07-13T12:28:44;6.53;;;1.50;;
56541;SDS011;42438;53.174;6.730;2023-07-13T12:34:08;2.67;;;1.45;;
56541;SDS011;42438;53.174;6.730;2023-07-13T12:36:47;3.35;;;1.80;;
56541;SDS011;42438;53.174;6.730;2023-07-13T12:42:09;4.15;;;1.45;;
56541;SDS011;42438;53.174;6.730;2023-07-13T12:44:44;3.70;;;1.90;;
56541;SDS011;42438;53.174;6.730;2023-07-13T12:47:16;13.63;;;3.28;;
56541;SDS011;42438;53.174;6.730;2023-07-13T12:49:53;6.68;;;2.20;;
56541;SDS011;42438;53.174;6.730;2023-07-13T12:52:32;10.40;;;3.97;;
56541;SDS011;42438;53.174;6.730;2023-07-13T12:55:06;6.65;;;2.33;;
56541;SDS011;42438;53.174;6.730;2023-07-13T12:57:51;6.43;;;2.33;;
56541;SDS011;42438;53.174;6.730;2023-07-13T13:02:56;4.05;;;1.63;;
56541;SDS011;42438;53.174;6.730;2023-07-13T13:05:27;3.28;;;1.50;;
56541;SDS011;42438;53.174;6.730;2023-07-13T13:08:00;4.07;;;1.52;;
56541;SDS011;42438;53.174;6.730;2023-07-13T13:10:30;3.65;;;1.40;;
56541;SDS011;42438;53.174;6.730;2023-07-13T13:13:01;3.42;;;1.60;;
56541;SDS011;42438;53.174;6.730;2023-07-13T13:15:33;4.45;;;1.50;;
56541;SDS011;42438;53.174;6.730;2023-07-13T13:18:08;3.95;;;1.48;;
56541;SDS011;42438;53.174;6.730;2023-07-13T13:20:46;2.80;;;1.40;;
56541;SDS011;42438;53.174;6.730;2023-07-13T13:23:19;4.88;;;1.70;;
56541;SDS011;42438;53.174;6.730;2023-07-13T13:25:50;5.27;;;1.70;;
56541;SDS011;42438;53.174;6.730;2023-07-13T13:28:22;4.43;;;1.70;;
56541;SDS011;42438;53.174;6.730;2023-07-13T13:30:53;3.83;;;1.27;;
56541;SDS011;42438;53.174;6.730;2023-07-13T13:33:23;2.65;;;1.10;;
56541;SDS011;42438;53.174;6.730;2023-07-13T13:35:54;2.10;;;1.20;;
56541;SDS011;42438;53.174;6.730;2023-07-13T13:38:25;4.85;;;1.42;;
56541;SDS011;42438;53.174;6.730;2023-07-13T13:40:57;4.00;;;1.60;;
56541;SDS011;42438;53.174;6.730;2023-07-13T13:43:28;4.57;;;1.80;;
56541;SDS011;42438;53.174;6.730;2023-07-13T13:45:59;3.22;;;1.77;;
56541;SDS011;42438;53.174;6.730;2023-07-13T13:48:33;3.97;;;1.60;;
56541;SDS011;42438;53.174;6.730;2023-07-13T13:51:12;7.20;;;1.88;;
56541;SDS011;42438;53.174;6.730;2023-07-13T13:53:47;3.65;;;1.60;;
56541;SDS011;42438;53.174;6.730;2023-07-13T13:56:19;4.13;;;1.73;;
56541;SDS011;42438;53.174;6.730;2023-07-13T13:58:50;3.38;;;1.65;;
56541;SDS011;42438;53.174;6.730;2023-07-13T14:01:21;7.88;;;1.50;;
56541;SDS011;42438;53.174;6.730;2023-07-13T14:03:53;3.72;;;1.77;;
56541;SDS011;42438;53.174;6.730;2023-07-13T14:06:24;6.15;;;1.70;;
56541;SDS011;42438;53.174;6.730;2023-07-13T14:08:55;7.35;;;1.90;;
56541;SDS011;42438;53.174;6.730;2023-07-13T14:11:25;6.07;;;1.75;;
56541;SDS011;42438;53.174;6.730;2023-07-13T14:13:57;5.03;;;1.77;;
56541;SDS011;42438;53.174;6.730;2023-07-13T14:16:30;6.85;;;1.90;;
56541;SDS011;42438;53.174;6.730;2023-07-13T14:19:03;5.85;;;1.88;;
56541;SDS011;42438;53.174;6.730;2023-07-13T14:21:34;3.70;;;1.70;;
56541;SDS011;42438;53.174;6.730;2023-07-13T14:24:05;7.25;;;2.50;;
56541;SDS011;42438;53.174;6.730;2023-07-13T14:26:37;5.28;;;2.00;;
56541;SDS011;42438;53.174;6.730;2023-07-13T14:29:14;5.47;;;1.85;;
56541;SDS011;42438;53.174;6.730;2023-07-13T14:31:47;4.60;;;2.60;;
56541;SDS011;42438;53.174;6.730;2023-07-13T14:34:18;4.22;;;1.65;;
56541;SDS011;42438;53.174;6.730;2023-07-13T14:36:49;3.80;;;1.83;;
56541;SDS011;42438;53.174;6.730;2023-07-13T14:39:22;4.50;;;2.08;;
56541;SDS011;42438;53.174;6.730;2023-07-13T14:41:55;4.78;;;1.65;;
56541;SDS011;42438;53.174;6.730;2023-07-13T14:44:27;5.53;;;1.50;;
56541;SDS011;42438;53.174;6.730;2023-07-13T14:47:00;4.72;;;1.67;;
56541;SDS011;42438;53.174;6.730;2023-07-13T14:49:41;5.70;;;1.80;;
56541;SDS011;42438;53.174;6.730;2023-07-13T14:52:17;4.32;;;1.80;;
56541;SDS011;42438;53.174;6.730;2023-07-13T14:54:50;5.22;;;2.13;;
56541;SDS011;42438;53.174;6.730;2023-07-13T14:57:21;4.43;;;1.70;;
56541;SDS011;42438;53.174;6.730;2023-07-13T14:59:52;4.40;;;1.95;;
56541;SDS011;42438;53.174;6.730;2023-07-13T15:02:27;4.05;;;1.77;;
56541;SDS011;42438;53.174;6.730;2023-07-13T15:05:00;4.88;;;1.85;;
56541;SDS011;42438;53.174;6.730;2023-07-13T15:07:31;4.40;;;1.75;;
56541;SDS011;42438;53.174;6.730;2023-07-13T15:10:16;3.50;;;1.80;;
56541;SDS011;42438;53.174;6.730;2023-07-13T15:12:52;3.63;;;1.65;;
56541;SDS011;42438;53.174;6.730;2023-07-13T15:15:23;4.85;;;1.50;;
56541;SDS011;42438;53.174;6.730;2023-07-13T15:17:54;4.70;;;1.50;;
56541;SDS011;42438;53.174;6.730;2023-07-13T15:20:28;4.22;;;1.80;;
56541;SDS011;42438;53.174;6.730;2023-07-13T15:23:02;3.63;;;1.75;;
56541;SDS011;42438;53.174;6.730;2023-07-13T15:25:33;5.60;;;2.10;;
56541;SDS011;42438;53.174;6.730;2023-07-13T15:28:04;4.60;;;1.70;;
56541;SDS011;42438;53.174;6.730;2023-07-13T15:30:41;6.50;;;1.70;;
56541;SDS011;42438;53.174;6.730;2023-07-13T15:36:12;5.00;;;1.77;;
56541;SDS011;42438;53.174;6.730;2023-07-13T15:38:43;4.72;;;1.75;;
56541;SDS011;42438;53.174;6.730;2023-07-13T15:41:19;4.28;;;1.70;;
56541;SDS011;42438;53.174;6.730;2023-07-13T15:43:56;10.02;;;1.90;;
56541;SDS011;42438;53.174;6.730;2023-07-13T15:46:30;4.78;;;1.75;;
56541;SDS011;42438;53.174;6.730;2023-07-13T15:49:01;8.20;;;2.05;;
56541;SDS011;42438;53.174;6.730;2023-07-13T15:51:31;3.75;;;1.80;;
56541;SDS011;42438;53.174;6.730;2023-07-13T15:54:04;3.30;;;1.70;;
56541;SDS011;42438;53.174;6.730;2023-07-13T15:56:36;5.40;;;2.28;;
56541;SDS011;42438;53.174;6.730;2023-07-13T15:59:10;5.85;;;2.13;;
56541;SDS011;42438;53.174;6.730;2023-07-13T16:01:44;3.53;;;1.80;;
56541;SDS011;42438;53.174;6.730;2023-07-13T16:04:16;4.72;;;1.98;;
56541;SDS011;42438;53.174;6.730;2023-07-13T16:06:49;5.75;;;2.10;;
56541;SDS011;42438;53.174;6.730;2023-07-13T16:09:21;6.40;;;2.20;;
56541;SDS011;42438;53.174;6.730;2023-07-13T16:11:53;4.97;;;2.35;;
56541;SDS011;42438;53.174;6.730;2023-07-13T16:14:27;8.50;;;2.08;;
56541;SDS011;42438;53.174;6.730;2023-07-13T16:16:58;7.57;;;2.10;;
56541;SDS011;42438;53.174;6.730;2023-07-13T16:19:29;9.00;;;2.38;;